Time;durP1;ratioP1;P1;durP2;ratioP2;P2;SDS_P1;SDS_P2;PMS_P1;PMS_P2;Temp;Humidity;BMP_temperature;BMP_pressure;BME280_temperature;BME280_humidity;BME280_pressure;Samples;Min_cycle;Max_cycle;Signal;HPM_P1;HPM_P2
2024/04/10 00:01:05;;;;;;;1.33;0.77;;;6.80;91.20;;;;;;5470070;26;19998;-77
2024/04/10 00:03:31;;;;;;;1.08;0.57;;;;;;;;;;5486024;26;20010;-78
2024/04/10 00:06:04;;;;;;;0.90;0.80;;;6.70;99.90;;;;;;5485659;26;20006;-77
2024/04/10 00:08:30;;;;;;;0.75;0.70;;;;;;;;;;5486728;26;20002;-77
2024/04/10 00:10:56;;;;;;;0.90;0.50;;;6.60;99.90;;;;;;5486512;26;19998;-77
2024/04/10 00:13:22;;;;;;;0.65;0.65;;;;;;;;;;5486131;26;19998;-77
2024/04/10 00:16:04;;;;;;;1.17;0.50;;;;;;;;;;5486596;26;20415;-77
2024/04/10 00:18:32;;;;;;;1.20;1.15;;;6.60;91.20;;;;;;5486408;26;20002;-78
2024/04/10 00:20:58;;;;;;;0.50;0.45;;;6.60;99.90;;;;;;5486498;26;20324;-77
2024/04/10 00:23:24;;;;;;;2.28;0.68;;;;;;;;;;5484368;26;20009;-77
2024/04/10 00:26:00;;;;;;;0.93;0.60;;;6.50;97.50;;;;;;5486564;26;19998;-78
2024/04/10 00:28:28;;;;;;;0.95;0.70;;;6.50;91.00;;;;;;5485747;26;19998;-77
2024/04/10 00:30:54;;;;;;;0.50;0.50;;;;;;;;;;5486343;26;20014;-77
2024/04/10 00:33:20;;;;;;;0.52;0.52;;;;;;;;;;5483980;26;20351;-80
2024/04/10 00:36:02;;;;;;;1.10;0.75;;;6.60;94.20;;;;;;5486684;26;20006;-77
2024/04/10 00:38:30;;;;;;;0.68;0.68;;;6.60;99.90;;;;;;5462636;26;20343;-77
2024/04/10 00:40:57;;;;;;;5.13;0.70;;;6.70;90.80;;;;;;5485732;26;20045;-76
2024/04/10 00:43:23;;;;;;;2.83;0.73;;;6.60;99.90;;;;;;5484636;26;19998;-78
2024/04/10 00:45:55;;;;;;;2.60;0.90;;;6.80;99.90;;;;;;5485233;26;19994;-77
2024/04/10 00:48:21;;;;;;;3.13;0.70;;;;;;;;;;5485912;26;20342;-77
2024/04/10 00:50:47;;;;;;;0.80;0.63;;;;;;;;;;5485090;26;20034;-77
2024/04/10 00:53:13;;;;;;;5.35;1.20;;;;;;;;;;5486037;26;20003;-77
2024/04/10 00:55:39;;;;;;;4.05;0.85;;;;;;;;;;5484711;26;20450;-77
2024/04/10 00:58:05;;;;;;;6.35;0.60;;;;;;;;;;5485597;26;20067;-78
2024/04/10 01:00:32;;;;;;;1.60;0.93;;;;;;;;;;5484621;26;20012;-76
2024/04/10 01:02:58;;;;;;;1.45;0.75;;;7.00;90.70;;;;;;5486330;26;20006;-77
2024/04/10 01:05:24;;;;;;;2.15;1.05;;;;;;;;;;5484898;26;20002;-77
2024/04/10 01:07:50;;;;;;;3.30;0.68;;;;;;;;;;5485964;26;19998;-77
2024/04/10 01:10:17;;;;;;;0.40;0.40;;;;;;;;;;5453050;26;20522;-80
2024/04/10 01:12:45;;;;;;;3.80;0.68;;;;;;;;;;5484776;26;19994;-77
2024/04/10 01:15:11;;;;;;;4.30;0.80;;;;;;;;;;5484483;26;20002;-77
2024/04/10 01:17:38;;;;;;;0.68;0.68;;;;;;;;;;5485244;26;20462;-80
2024/04/10 01:20:07;;;;;;;0.60;0.60;;;6.90;89.10;;;;;;5476357;26;20010;-77
2024/04/10 01:22:34;;;;;;;2.00;1.20;;;6.90;99.70;;;;;;5485756;26;20009;-77
2024/04/10 01:25:00;;;;;;;1.95;0.68;;;;;;;;;;5484775;26;20038;-77
2024/04/10 01:27:26;;;;;;;1.23;0.90;;;;;;;;;;5481822;26;20010;-77
2024/04/10 01:29:52;;;;;;;0.60;0.60;;;;;;;;;;5483548;26;19994;-77
2024/04/10 01:32:18;;;;;;;0.85;0.60;;;;;;;;;;5484671;26;19998;-78
2024/04/10 01:34:43;;;;;;;2.00;0.63;;;;;;;;;;5485259;26;20009;-77
2024/04/10 01:37:10;;;;;;;2.25;0.60;;;;;;;;;;5485123;26;20004;-77
2024/04/10 01:39:36;;;;;;;0.95;0.80;;;;;;;;;;5484773;26;20447;-77
2024/04/10 01:42:02;;;;;;;0.93;0.85;;;;;;;;;;5484751;26;20038;-77
2024/04/10 01:44:28;;;;;;;0.52;0.52;;;;;;;;;;5484177;26;19997;-78
2024/04/10 01:46:54;;;;;;;1.88;0.70;;;;;;;;;;5484874;26;20006;-77
2024/04/10 01:49:20;;;;;;;1.10;0.93;;;;;;;;;;5484056;26;20439;-77
2024/04/10 01:51:46;;;;;;;1.98;1.00;;;;;;;;;;5484477;26;20009;-78
2024/04/10 01:54:13;;;;;;;3.30;0.60;;;;;;;;;;5452113;26;19995;-78
2024/04/10 01:56:39;;;;;;;6.30;0.80;;;;;;;;;;5465833;26;20082;-77
2024/04/10 01:59:06;;;;;;;1.40;0.70;;;;;;;;;;5483915;26;20017;-77
2024/04/10 02:01:34;;;;;;;6.73;0.83;;;;;;;;;;5484395;26;20434;-78
2024/04/10 02:04:00;;;;;;;0.73;0.73;;;;;;;;;;5483920;26;20004;-78
2024/04/10 02:06:26;;;;;;;1.42;1.00;;;;;;;;;;5483343;26;20458;-78
2024/04/10 02:08:52;;;;;;;0.63;0.63;;;;;;;;;;5484321;26;20066;-77
2024/04/10 02:11:28;;;;;;;1.27;0.70;;;;;;;;;;5484808;26;20449;-77
2024/04/10 02:13:54;;;;;;;1.38;0.70;;;;;;;;;;5484650;26;20030;-77
2024/04/10 02:16:23;;;;;;;5.82;1.42;;;6.40;97.60;;;;;;5483924;26;20017;-77
2024/04/10 02:18:50;;;;;;;1.65;0.90;;;6.50;94.10;;;;;;5484745;26;20006;-77
2024/04/10 02:21:17;;;;;;;0.60;0.60;;;;;;;;;;5483163;26;20336;-79
2024/04/10 02:23:43;;;;;;;0.68;0.68;;;;;;;;;;5483531;26;20006;-77
2024/04/10 02:26:12;;;;;;;2.22;0.90;;;6.00;90.90;;;;;;5483884;26;19998;-76
2024/04/10 02:28:38;;;;;;;0.68;0.60;;;;;;;;;;5484285;26;20009;-76
2024/04/10 02:31:05;;;;;;;1.13;0.70;;;;;;;;;;5484114;26;20002;-77
2024/04/10 02:33:34;;;;;;;0.50;0.50;;;5.80;99.90;;;;;;5484366;26;19998;-77
2024/04/10 02:36:00;;;;;;;0.95;0.82;;;;;;;;;;5483540;26;20002;-77
2024/04/10 02:38:28;;;;;;;7.78;1.05;;;5.50;99.30;;;;;;5483880;26;19998;-77
2024/04/10 02:40:54;;;;;;;1.85;0.90;;;;;;;;;;5481934;26;20021;-77
2024/04/10 02:43:20;;;;;;;0.85;0.75;;;5.60;92.40;;;;;;5452091;26;20355;-77
2024/04/10 02:45:59;;;;;;;0.65;0.65;;;5.50;92.20;;;;;;5483582;26;19998;-77
2024/04/10 02:48:26;;;;;;;10.25;0.88;;;5.30;92.60;;;;;;5483375;26;20556;-78
2024/04/10 02:50:52;;;;;;;2.30;0.70;;;5.20;92.80;;;;;;5483482;26;20002;-77
2024/04/10 02:53:19;;;;;;;0.65;0.65;;;;;;;;;;5483318;26;20002;-77
2024/04/10 02:55:45;;;;;;;1.02;0.93;;;;;;;;;;5475733;26;20444;-77
2024/04/10 02:58:12;;;;;;;0.60;0.60;;;0.90;92.90;;;;;;5475210;26;20010;-76
2024/04/10 03:00:45;;;;;;;1.38;0.98;;;;;;;;;;5483094;26;20482;-75
2024/04/10 03:03:11;;;;;;;3.03;0.90;;;;;;;;;;5483617;26;20025;-77
2024/04/10 03:05:37;;;;;;;1.77;1.17;;;;;;;;;;5484208;26;19998;-78
2024/04/10 03:08:05;;;;;;;1.00;0.88;;;4.70;99.90;;;;;;5482624;26;20508;-77
2024/04/10 03:10:30;;;;;;;2.78;0.65;;;5.30;99.90;;;;;;5483407;26;19994;-76
2024/04/10 03:12:56;;;;;;;4.80;0.73;;;4.80;99.90;;;;;;5483463;26;20010;-77
2024/04/10 03:15:22;;;;;;;0.57;0.57;;;;;;;;;;5483403;26;19999;-77
2024/04/10 03:17:47;;;;;;;0.70;0.70;;;4.70;99.90;;;;;;5481704;26;19995;-77
2024/04/10 03:20:14;;;;;;;2.67;1.77;;;;;;;;;;5451325;26;20016;-76
2024/04/10 03:22:41;;;;;;;3.08;1.40;;;;;;;;;;5483541;26;20605;-78
2024/04/10 03:25:07;;;;;;;6.45;1.20;;;;;;;;;;5483682;26;20002;-78
2024/04/10 03:27:33;;;;;;;2.03;1.15;;;4.40;99.90;;;;;;5483569;26;20012;-78
2024/04/10 03:29:59;;;;;;;1.02;0.93;;;4.30;99.90;;;;;;5483111;26;20034;-77
2024/04/10 03:32:27;;;;;;;1.02;0.93;;;4.20;95.90;;;;;;5482766;26;20916;-77
2024/04/10 03:34:53;;;;;;;3.20;1.08;;;4.20;99.90;;;;;;5444460;26;20010;-77
2024/04/10 03:37:19;;;;;;;1.00;1.00;;;;;;;;;;5443003;26;20337;-77
2024/04/10 03:39:45;;;;;;;6.40;1.20;;;;;;;;;;5483564;26;20017;-77
2024/04/10 03:42:12;;;;;;;2.67;1.50;;;;;;;;;;5482187;26;20005;-78
2024/04/10 03:44:38;;;;;;;1.85;1.25;;;4.00;99.90;;;;;;5482900;26;20483;-77
2024/04/10 03:47:04;;;;;;;3.33;1.30;;;4.10;99.90;;;;;;5460660;26;19994;-77
2024/04/10 03:49:30;;;;;;;3.45;0.90;;;;;;;;;;5482371;26;20342;-78
2024/04/10 03:51:56;;;;;;;0.57;0.57;;;;;;;;;;5482311;26;20022;-78
2024/04/10 03:54:21;;;;;;;4.68;1.83;;;4.00;99.30;;;;;;5486626;26;20395;-77
2024/04/10 03:56:47;;;;;;;1.92;0.95;;;;;;;;;;5485606;26;20006;-78
2024/04/10 03:59:13;;;;;;;0.60;0.60;;;;;;;;;;5485648;26;20065;-78
2024/04/10 04:01:39;;;;;;;2.85;1.45;;;4.10;99.90;;;;;;5486434;26;20453;-77
2024/04/10 04:04:05;;;;;;;0.55;0.55;;;;;;;;;;5486671;26;19998;-77
2024/04/10 04:06:31;;;;;;;1.02;0.93;;;;;;;;;;5485893;26;20001;-77
2024/04/10 04:08:57;;;;;;;0.75;0.50;;;;;;;;;;5484985;26;20002;-78
2024/04/10 04:11:23;;;;;;;0.88;0.75;;;;;;;;;;5486154;26;20002;-77
2024/04/10 04:13:49;;;;;;;0.75;0.70;;;;;;;;;;5486255;26;19998;-77
2024/04/10 04:16:15;;;;;;;1.10;1.00;;;;;;;;;;5485426;26;20763;-77
2024/04/10 04:18:41;;;;;;;1.05;0.77;;;;;;;;;;5486378;26;20018;-77
2024/04/10 04:21:07;;;;;;;3.30;1.58;;;;;;;;;;5484709;26;20491;-78
2024/04/10 04:23:34;;;;;;;6.95;1.35;;;;;;;;;;5486244;26;20006;-76
2024/04/10 04:26:00;;;;;;;0.98;0.93;;;3.70;99.90;;;;;;5485072;26;20006;-78
2024/04/10 04:28:26;;;;;;;8.90;1.40;;;4.30;99.90;;;;;;5486142;26;20358;-77
2024/04/10 04:30:52;;;;;;;1.08;0.98;;;;;;;;;;5453450;26;20078;-78
2024/04/10 04:33:18;;;;;;;2.72;1.35;;;4.50;99.90;;;;;;5453895;26;20013;-78
2024/04/10 04:35:45;;;;;;;3.10;1.25;;;4.50;99.90;;;;;;5485105;26;20002;-77
2024/04/10 04:38:10;;;;;;;6.50;1.27;;;4.50;99.90;;;;;;5485946;26;19998;-78
2024/04/10 04:40:37;;;;;;;2.00;1.10;;;4.40;99.90;;;;;;5485838;26;20528;-78
2024/04/10 04:43:08;;;;;;;1.00;1.00;;;;;;;;;;5485591;26;20006;-77
2024/04/10 04:45:37;;;;;;;6.50;1.10;;;4.70;98.20;;;;;;5485094;26;19998;-77
2024/04/10 04:48:08;;;;;;;3.42;1.00;;;5.00;98.00;;;;;;5484993;26;20013;-77
2024/04/10 04:50:34;;;;;;;0.80;0.80;;;;;;;;;;5485292;26;20078;-77
2024/04/10 04:53:00;;;;;;;1.17;1.08;;;;;;;;;;5486097;26;20530;-77
2024/04/10 04:55:27;;;;;;;0.93;0.73;;;5.10;99.90;;;;;;5485152;26;20002;-77
2024/04/10 04:57:53;;;;;;;2.03;1.92;;;5.20;99.90;;;;;;5485888;26;19998;-75
2024/04/10 05:00:22;;;;;;;5.47;1.88;;;5.10;99.90;;;;;;5485495;26;19998;-77
2024/04/10 05:02:48;;;;;;;4.75;1.83;;;5.30;99.90;;;;;;5485136;26;20010;-78
2024/04/10 05:05:14;;;;;;;6.97;1.00;;;5.20;99.90;;;;;;5483981;26;20013;-77
2024/04/10 05:07:41;;;;;;;6.95;1.02;;;5.20;96.80;;;;;;5484782;26;20442;-77
2024/04/10 05:10:08;;;;;;;2.85;1.50;;;5.20;99.90;;;;;;5485115;26;20320;-76
2024/04/10 05:12:34;;;;;;;9.32;1.55;;;5.30;99.90;;;;;;5472516;26;20363;-77
2024/04/10 05:15:00;;;;;;;1.08;0.98;;;;;;;;;;5474406;26;20465;-77
2024/04/10 05:17:26;;;;;;;2.53;1.02;;;;;;;;;;5476163;26;19994;-77
2024/04/10 05:19:52;;;;;;;0.75;0.75;;;5.50;99.90;;;;;;5482277;26;20009;-78
2024/04/10 05:22:18;;;;;;;8.50;2.10;;;;;;;;;;5484287;26;20471;-77
2024/04/10 05:24:43;;;;;;;1.48;1.05;;;5.50;99.90;;;;;;5471239;26;20779;-75
2024/04/10 05:27:20;;;;;;;1.33;1.15;;;6.00;96.20;;;;;;5443263;26;19995;-77
2024/04/10 05:29:46;;;;;;;3.53;1.88;;;5.80;99.90;;;;;;5464329;26;20082;-76
2024/04/10 05:32:13;;;;;;;3.10;1.45;;;;;;;;;;5461543;26;20014;-76
2024/04/10 05:34:39;;;;;;;3.22;1.58;;;;;;;;;;5455393;26;20010;-77
2024/04/10 05:37:05;;;;;;;1.38;1.23;;;;;;;;;;5470542;26;20051;-76
2024/04/10 05:39:33;;;;;;;1.35;1.25;;;;;;;;;;5473867;26;20719;-75
2024/04/10 05:42:05;;;;;;;1.73;1.05;;;;;;;;;;5475099;26;20055;-76
2024/04/10 05:44:31;;;;;;;2.03;1.17;;;;;;;;;;5481211;26;20082;-76
2024/04/10 05:46:57;;;;;;;2.08;0.90;;;;;;;;;;5442311;26;20038;-76
2024/04/10 05:49:23;;;;;;;0.90;0.90;;;;;;;;;;5466687;26;20002;-82
2024/04/10 05:51:49;;;;;;;1.25;1.15;;;;;;;;;;5470318;26;20000;-75
2024/04/10 05:54:15;;;;;;;4.95;1.10;;;;;;;;;;5445774;26;20462;-76
2024/04/10 05:56:41;;;;;;;1.65;1.23;;;;;;;;;;5418620;26;20003;-76
2024/04/10 05:59:08;;;;;;;10.40;1.45;;;;;;;;;;5480235;26;20451;-76
2024/04/10 06:01:34;;;;;;;2.70;0.90;;;;;;;;;;5479549;26;20013;-76
2024/04/10 06:04:00;;;;;;;1.20;1.10;;;;;;;;;;5477814;26;20006;-76
2024/04/10 06:06:27;;;;;;;1.15;1.00;;;;;;;;;;5477881;26;20358;-77
2024/04/10 06:08:53;;;;;;;2.35;1.33;;;;;;;;;;5479607;26;20062;-77
2024/04/10 06:11:19;;;;;;;2.13;2.03;;;;;;;;;;5481369;26;19994;-76
2024/04/10 06:13:47;;;;;;;1.20;1.10;;;;;;;;;;5448691;26;21038;-77
2024/04/10 06:16:13;;;;;;;1.88;0.90;;;;;;;;;;5479222;26;20017;-77
2024/04/10 06:18:39;;;;;;;1.60;1.50;;;;;;;;;;5469468;26;20009;-75
2024/04/10 06:21:07;;;;;;;3.97;2.30;;;;;;;;;;5466700;26;20021;-76
2024/04/10 06:23:33;;;;;;;3.38;2.97;;;;;;;;;;5473575;26;20231;-77
2024/04/10 06:25:59;;;;;;;4.05;2.90;;;;;;;;;;5475407;26;20033;-78
2024/04/10 06:28:26;;;;;;;3.00;2.80;;;19.80;59.50;;;;;;5474678;26;19999;-79
2024/04/10 06:30:58;;;;;;;2.50;2.40;;;;;;;;;;5474791;26;20012;-83
2024/04/10 06:33:24;;;;;;;2.63;2.42;;;;;;;;;;5478592;26;20010;-79
2024/04/10 06:35:50;;;;;;;2.80;2.60;;;;;;;;;;5478549;26;20005;-79
2024/04/10 06:38:16;;;;;;;2.90;2.40;;;26.00;55.10;;;;;;5473561;26;20016;-78
2024/04/10 06:40:42;;;;;;;4.28;1.85;;;;;;;;;;5476438;26;20446;-79
2024/04/10 06:43:09;;;;;;;3.83;1.52;;;28.80;40.80;;;;;;5476906;26;20017;-79
2024/04/10 06:45:36;;;;;;;2.58;1.38;;;;;;;;;;5476130;26;19995;-79
2024/04/10 06:48:03;;;;;;;2.38;1.35;;;;;;;;;;5472632;26;20100;-78
2024/04/10 06:50:29;;;;;;;1.55;0.98;;;;;;;;;;5471933;26;20010;-76
2024/04/10 06:52:55;;;;;;;2.03;1.65;;;;;;;;;;5443294;26;20002;-78
2024/04/10 06:55:20;;;;;;;4.05;1.77;;;32.40;40.40;;;;;;5445071;26;20382;-79
2024/04/10 06:57:47;;;;;;;3.25;1.75;;;;;;;;;;5473156;26;20024;-79
2024/04/10 07:00:12;;;;;;;2.20;1.23;;;33.20;30.50;;;;;;5473454;26;20021;-79
2024/04/10 07:02:44;;;;;;;3.03;0.47;;;31.40;31.10;;;;;;5477310;26;19995;-78
2024/04/10 07:05:10;;;;;;;3.03;1.13;;;;;;;;;;5467009;26;20001;-77
2024/04/10 07:07:38;;;;;;;4.00;1.40;;;32.20;30.70;;;;;;5462395;26;20013;-77
2024/04/10 07:10:05;;;;;;;4.40;1.58;;;33.00;40.30;;;;;;5472936;26;20013;-78
2024/04/10 07:12:32;;;;;;;;;;;33.30;29.80;;;;;;5472796;26;19999;-78
2024/04/10 07:14:58;;;;;;;3.22;1.55;;;;;;;;;;5475623;26;19924;-78
2024/04/10 07:17:24;;;;;;;3.97;1.50;;;;;;;;;;5475943;26;20005;-77
2024/04/10 07:19:50;;;;;;;4.27;0.70;;;32.50;28.00;;;;;;5468799;26;19998;-77
2024/04/10 07:22:16;;;;;;;1.80;1.03;;;;;;;;;;5476033;26;20008;-77
2024/04/10 07:24:42;;;;;;;4.43;0.70;;;;;;;;;;5475719;26;19990;-78
2024/04/10 07:27:08;;;;;;;2.90;0.60;;;;;;;;;;5469007;26;20505;-78
2024/04/10 07:29:34;;;;;;;3.77;1.70;;;;;;;;;;5472264;26;19998;-79
2024/04/10 07:32:02;;;;;;;2.70;1.57;;;;;;;;;;5480407;26;20029;-79
2024/04/10 07:34:28;;;;;;;1.70;1.48;;;;;;;;;;5481139;26;20055;-79
2024/04/10 07:36:53;;;;;;;4.50;1.30;;;41.40;28.60;;;;;;5479956;26;20006;-78
2024/04/10 07:39:19;;;;;;;1.57;1.13;;;;;;;;;;5469846;26;20017;-78
2024/04/10 07:41:45;;;;;;;1.58;0.60;;;;;;;;;;5479490;26;19994;-78
2024/04/10 07:44:12;;;;;;;5.13;1.10;;;;;;;;;;5478954;26;20453;-75
2024/04/10 07:46:38;;;;;;;3.80;0.95;;;;;;;;;;5482006;26;20392;-78
2024/04/10 07:49:06;;;;;;;1.52;0.98;;;;;;;;;;5474816;26;20012;-77
2024/04/10 07:51:32;;;;;;;1.88;0.35;;;;;;;;;;5478875;26;20010;-76
2024/04/10 07:53:58;;;;;;;2.88;1.20;;;;;;;;;;5479322;26;19998;-76
2024/04/10 07:56:26;;;;;;;6.15;1.13;;;;;;;;;;5479977;26;20017;-76
2024/04/10 07:58:52;;;;;;;1.95;1.33;;;;;;;;;;5474681;26;20010;-77
2024/04/10 08:01:19;;;;;;;1.75;0.52;;;;;;;;;;5479659;26;20013;-76
2024/04/10 08:03:45;;;;;;;2.17;1.45;;;;;;;;;;5467489;26;20031;-77
2024/04/10 08:06:12;;;;;;;5.65;0.73;;;27.60;26.20;;;;;;5480075;26;20042;-76
2024/04/10 08:08:42;;;;;;;6.75;2.13;;;29.80;33.30;;;;;;5475715;26;20920;-77
2024/04/10 08:11:11;;;;;;;5.60;0.80;;;28.90;25.10;;;;;;5477262;26;19999;-76
2024/04/10 08:13:37;;;;;;;2.67;0.98;;;27.10;26.10;;;;;;5480414;26;20095;-77
2024/04/10 08:16:05;;;;;;;5.63;2.65;;;29.40;27.50;;;;;;5478293;26;20034;-78
2024/04/10 08:18:33;;;;;;;3.15;1.92;;;31.30;32.20;;;;;;5474702;26;20078;-76
2024/04/10 08:21:02;;;;;;;2.13;1.05;;;30.50;24.30;;;;;;5479205;26;20017;-75
2024/04/10 08:23:29;;;;;;;6.03;1.80;;;31.90;25.50;;;;;;5478701;26;20012;-76
2024/04/10 08:25:55;;;;;;;;;;;32.50;23.50;;;;;;5480453;26;20450;-77
2024/04/10 08:28:21;;;;;;;;;;;;;;;;;;5467864;26;20021;-76
2024/04/10 08:30:47;;;;;;;3.72;1.33;;;27.00;26.80;;;;;;5477908;26;19939;-76
2024/04/10 08:33:13;;;;;;;4.72;1.98;;;27.90;27.50;;;;;;5480020;26;19994;-78
2024/04/10 08:35:42;;;;;;;3.73;1.00;;;;;;;;;;5444229;26;20363;-81
2024/04/10 08:38:08;;;;;;;2.63;1.70;;;;;;;;;;5473956;26;20006;-79
2024/04/10 08:40:40;;;;;;;5.20;1.67;;;;;;;;;;5476621;26;20009;-78
2024/04/10 08:43:11;;;;;;;2.28;1.10;;;18.60;37.50;;;;;;5480663;26;20443;-76
2024/04/10 08:45:37;;;;;;;8.73;1.52;;;;;;;;;;5474971;26;20010;-77
2024/04/10 08:48:03;;;;;;;4.05;1.38;;;;;;;;;;5475355;26;20447;-77
2024/04/10 08:50:32;;;;;;;1.33;1.00;;;;;;;;;;5476160;26;20119;-77
2024/04/10 08:52:59;;;;;;;5.15;1.83;;;16.60;34.30;;;;;;5470700;26;20002;-77
2024/04/10 08:55:27;;;;;;;5.18;2.90;;;15.90;35.40;;;;;;5475792;26;20053;-77
2024/04/10 08:57:53;;;;;;;6.05;1.30;;;;;;;;;;5475597;26;20439;-79
2024/04/10 09:00:19;;;;;;;5.97;2.90;;;;;;;;;;5476108;26;20017;-79
2024/04/10 09:02:45;;;;;;;9.60;3.08;;;;;;;;;;5478541;26;20006;-78
2024/04/10 09:05:11;;;;;;;7.20;2.65;;;;;;;;;;5477692;26;20009;-78
2024/04/10 09:07:37;;;;;;;8.68;4.05;;;;;;;;;;5482672;26;20070;-79
2024/04/10 09:10:09;;;;;;;8.35;4.47;;;28.30;30.30;;;;;;5473211;26;20006;-76
2024/04/10 09:12:36;;;;;;;3.97;2.13;;;;;;;;;;5478228;26;22845;-78
2024/04/10 09:15:12;;;;;;;3.97;1.60;;;31.50;24.80;;;;;;5479774;26;20016;-78
2024/04/10 09:17:39;;;;;;;5.55;1.40;;;;;;;;;;5477700;26;20009;-80
2024/04/10 09:20:16;;;;;;;6.70;2.50;;;32.90;31.10;;;;;;5473885;26;20802;-78
2024/04/10 09:22:43;;;;;;;5.75;0.98;;;36.20;28.10;;;;;;5478345;26;20063;-78
2024/04/10 09:25:12;;;;;;;1.83;1.67;;;37.50;23.20;;;;;;5479773;26;19998;-78
2024/04/10 09:27:39;;;;;;;7.63;1.35;;;36.90;22.20;;;;;;5475998;26;20001;-78
2024/04/10 09:30:08;;;;;;;4.10;0.32;;;31.40;22.60;;;;;;5473536;26;20010;-77
2024/04/10 09:32:36;;;;;;;4.75;0.52;;;26.60;29.00;;;;;;5479230;26;20017;-78
2024/04/10 09:35:05;;;;;;;4.25;1.45;;;;;;;;;;5478658;26;19998;-77
2024/04/10 09:37:31;;;;;;;9.30;0.90;;;;;;;;;;5476561;26;20006;-76
2024/04/10 09:39:57;;;;;;;1.50;0.82;;;;;;;;;;5471918;26;20008;-76
2024/04/10 09:42:27;;;;;;;2.10;0.85;;;21.70;28.40;;;;;;5478120;26;20002;-78
2024/04/10 09:45:05;;;;;;;5.63;0.80;;;;;;;;;;5481389;26;20103;-75
2024/04/10 09:47:32;;;;;;;7.10;1.05;;;20.90;31.00;;;;;;5472896;26;20002;-75
2024/04/10 09:49:59;;;;;;;6.38;1.95;;;25.00;29.10;;;;;;5468457;26;20498;-76
2024/04/10 09:52:27;;;;;;;2.95;1.70;;;27.80;27.70;;;;;;5475232;26;20006;-75
2024/04/10 09:54:55;;;;;;;5.47;2.55;;;32.10;29.50;;;;;;5478355;26;20469;-76
2024/04/10 09:57:22;;;;;;;2.20;1.20;;;;;;;;;;5472338;26;20440;-75
2024/04/10 09:59:48;;;;;;;2.63;0.90;;;;;;;;;;5459860;26;20014;-76
2024/04/10 10:02:18;;;;;;;2.83;0.88;;;42.60;28.50;;;;;;5438770;26;20094;-76
2024/04/10 10:04:44;;;;;;;4.53;1.08;;;;;;;;;;5477192;26;20462;-78
2024/04/10 10:07:10;;;;;;;2.53;1.10;;;;;;;;;;5471396;26;19998;-76
2024/04/10 10:09:36;;;;;;;2.13;0.60;;;;;;;;;;5469434;26;20013;-76
2024/04/10 10:12:02;;;;;;;4.97;0.75;;;34.50;30.90;;;;;;5443971;26;20078;-76
2024/04/10 10:14:30;;;;;;;1.47;0.77;;;32.00;23.00;;;;;;5472033;26;20415;-76
2024/04/10 10:17:09;;;;;;;3.35;1.05;;;30.50;22.90;;;;;;5469404;26;20005;-76
2024/04/10 10:19:35;;;;;;;1.63;0.38;;;27.20;23.80;;;;;;5468326;26;19998;-75
2024/04/10 10:22:01;;;;;;;6.38;0.80;;;;;;;;;;5471245;26;20002;-77
2024/04/10 10:24:29;;;;;;;0.50;0.50;;;;;;;;;;5462273;26;19995;-76
2024/04/10 10:26:58;;;;;;;;;;;26.40;26.00;;;;;;5470005;26;20125;-76
2024/04/10 10:29:26;;;;;;;3.78;1.13;;;;;;;;;;5465860;26;19930;-77
2024/04/10 10:32:05;;;;;;;2.28;0.82;;;37.70;29.50;;;;;;5478560;26;20017;-76
2024/04/10 10:34:31;;;;;;;2.17;0.80;;;;;;;;;;5479175;26;20002;-77
2024/04/10 10:37:06;;;;;;;2.90;0.52;;;41.30;20.10;;;;;;5477658;26;20021;-77
2024/04/10 10:39:33;;;;;;;6.55;0.85;;;35.50;20.90;;;;;;5474566;26;20013;-77
2024/04/10 10:42:05;;;;;;;;;;;31.20;21.70;;;;;;5472029;26;20049;-77
2024/04/10 10:44:32;;;;;;;1.25;0.40;;;;;;;;;;5469585;26;19951;-75
2024/04/10 10:46:58;;;;;;;1.67;0.50;;;24.80;29.60;;;;;;5475575;26;20549;-78
2024/04/10 10:49:27;;;;;;;0.65;0.45;;;23.70;29.50;;;;;;5472420;26;20239;-76
2024/04/10 10:51:54;;;;;;;4.13;1.08;;;22.20;26.60;;;;;;5477622;26;20038;-75
2024/04/10 10:54:20;;;;;;;5.97;1.00;;;;;;;;;;5474683;26;20042;-77
2024/04/10 10:56:46;;;;;;;4.53;0.75;;;;;;;;;;5471047;26;19998;-75
2024/04/10 10:59:14;;;;;;;4.93;1.65;;;;;;;;;;5469802;26;19998;-78
2024/04/10 11:01:40;;;;;;;1.85;0.77;;;;;;;;;;5479741;26;20017;-75
2024/04/10 11:04:24;;;;;;;6.13;0.70;;;;;;;;;;5481825;26;20069;-76
2024/04/10 11:06:50;;;;;;;2.50;1.00;;;;;;;;;;5434452;26;20537;-79
2024/04/10 11:09:16;;;;;;;6.45;1.15;;;36.30;24.70;;;;;;5473428;26;20009;-78
2024/04/10 11:11:43;;;;;;;1.70;0.63;;;34.50;21.50;;;;;;5480820;26;19994;-78
2024/04/10 11:14:14;;;;;;;3.60;0.82;;;33.00;23.40;;;;;;5345126;26;20024;-77
2024/04/10 11:16:41;;;;;;;1.55;0.60;;;;;;;;;;5336817;26;20577;-79
2024/04/10 11:19:07;;;;;;;2.97;0.90;;;30.90;23.40;;;;;;5328417;26;20349;-76
2024/04/10 11:21:34;;;;;;;1.02;0.75;;;;;;;;;;5343847;26;20354;-75
2024/04/10 11:24:00;;;;;;;2.65;0.77;;;;;;;;;;5336329;26;20045;-77
2024/04/10 11:26:26;;;;;;;5.88;1.55;;;;;;;;;;5338403;26;20094;-77
2024/04/10 11:28:55;;;;;;;4.97;1.38;;;31.00;24.40;;;;;;5327295;26;20009;-78
2024/04/10 11:31:21;;;;;;;3.40;0.90;;;;;;;;;;5320684;26;20013;-78
2024/04/10 11:33:47;;;;;;;1.60;0.93;;;;;;;;;;5337947;26;20001;-78
2024/04/10 11:36:14;;;;;;;2.00;0.77;;;33.80;23.00;;;;;;5342748;26;20027;-77
2024/04/10 11:38:42;;;;;;;1.88;0.50;;;;;;;;;;5339429;26;20472;-78
2024/04/10 11:41:09;;;;;;;4.68;1.00;;;;;;;;;;5336758;26;20005;-78
2024/04/10 11:43:35;;;;;;;4.22;1.17;;;;;;;;;;5338681;26;19997;-78
2024/04/10 11:46:02;;;;;;;1.73;0.82;;;27.40;24.80;;;;;;5332523;26;20463;-78
2024/04/10 11:48:28;;;;;;;2.70;0.75;;;;;;;;;;5333165;26;20024;-78
2024/04/10 11:50:56;;;;;;;8.48;1.23;;;29.30;24.00;;;;;;5340684;26;20000;-80
2024/04/10 11:53:22;;;;;;;2.17;0.45;;;;;;;;;;5346396;26;20000;-81
2024/04/10 11:55:48;;;;;;;3.83;0.95;;;;;;;;;;5343647;26;20011;-79
2024/04/10 11:58:14;;;;;;;2.42;0.73;;;;;;;;;;5340537;26;20005;-79
2024/04/10 12:00:41;;;;;;;6.70;1.40;;;;;;;;;;5333092;26;20361;-79
2024/04/10 12:03:07;;;;;;;2.13;1.50;;;;;;;;;;5336476;26;20326;-79
2024/04/10 12:05:36;;;;;;;3.67;0.55;;;;;;;;;;5342059;26;19997;-79
2024/04/10 12:08:02;;;;;;;6.05;0.95;;;;;;;;;;5342219;26;20013;-79
2024/04/10 12:10:31;;;;;;;1.08;0.60;;;;;;;;;;5343621;26;19997;-78
2024/04/10 12:12:57;;;;;;;2.15;0.50;;;;;;;;;;5349117;26;20007;-78
2024/04/10 12:15:23;;;;;;;2.60;1.70;;;;;;;;;;5346107;26;19997;-79
2024/04/10 12:17:51;;;;;;;0.93;0.65;;;;;;;;;;5340331;26;20033;-79
2024/04/10 12:20:17;;;;;;;2.55;0.82;;;;;;;;;;5336263;26;20031;-79
2024/04/10 12:22:43;;;;;;;1.27;0.88;;;;;;;;;;5346209;26;20005;-78
2024/04/10 12:25:09;;;;;;;1.70;0.82;;;17.50;29.30;;;;;;5344190;26;20088;-78
2024/04/10 12:27:35;;;;;;;3.92;0.60;;;;;;;;;;5348721;26;20094;-78
2024/04/10 12:30:01;;;;;;;5.05;0.85;;;;;;;;;;5340087;26;20432;-78
2024/04/10 12:32:27;;;;;;;2.70;0.77;;;;;;;;;;5344467;26;20005;-78
2024/04/10 12:34:58;;;;;;;1.38;0.95;;;;;;;;;;5338827;26;20104;-80
2024/04/10 12:40:09;;;;;;;5.63;1.27;;;;;;;;;;5334884;26;20087;-79
2024/04/10 12:42:35;;;;;;;2.85;1.85;;;;;;;;;;5338135;26;20001;-80
2024/04/10 12:45:00;;;;;;;6.95;1.20;;;17.90;35.60;;;;;;5338135;26;20523;-79
2024/04/10 12:47:27;;;;;;;1.25;0.93;;;;;;;;;;5338317;26;20032;-77
2024/04/10 12:49:52;;;;;;;0.75;0.70;;;;;;;;;;5334168;26;20442;-78
2024/04/10 12:52:19;;;;;;;3.45;1.05;;;;;;;;;;5338984;26;20061;-77
2024/04/10 12:54:45;;;;;;;6.57;0.93;;;;;;;;;;5338545;26;20056;-77
2024/04/10 12:57:13;;;;;;;4.70;1.50;;;;;;;;;;5338698;26;20446;-77
2024/04/10 12:59:39;;;;;;;5.10;0.90;;;;;;;;;;5332648;26;20070;-77
2024/04/10 13:02:06;;;;;;;2.90;1.20;;;;;;;;;;5336583;26;20397;-78
2024/04/10 13:04:32;;;;;;;2.47;1.17;;;;;;;;;;5338669;26;20000;-78
2024/04/10 13:06:58;;;;;;;1.33;1.25;;;;;;;;;;5346090;26;20020;-77
2024/04/10 13:09:24;;;;;;;1.92;0.82;;;;;;;;;;5338125;26;20009;-78
2024/04/10 13:11:51;;;;;;;1.67;1.15;;;;;;;;;;5339750;26;20023;-77
2024/04/10 13:14:17;;;;;;;4.25;1.00;;;;;;;;;;5346870;26;20896;-79
2024/04/10 13:16:42;;;;;;;6.43;1.20;;;17.50;52.20;;;;;;5351802;26;20001;-77
2024/04/10 13:19:08;;;;;;;3.40;1.75;;;;;;;;;;5334127;26;20001;-78
2024/04/10 13:21:34;;;;;;;0.98;0.80;;;;;;;;;;5352874;26;20000;-78
2024/04/10 13:24:00;;;;;;;4.97;1.33;;;;;;;;;;5339855;26;20020;-79
2024/04/10 13:26:26;;;;;;;3.13;0.90;;;17.90;38.30;;;;;;5337876;26;20017;-79
2024/04/10 13:28:52;;;;;;;2.55;1.25;;;;;;;;;;5334243;26;20001;-79
2024/04/10 13:31:21;;;;;;;0.80;0.80;;;17.50;34.90;;;;;;5339581;26;19997;-80
2024/04/10 13:33:49;;;;;;;1.10;0.90;;;17.50;35.00;;;;;;5338608;26;20001;-78
2024/04/10 13:36:16;;;;;;;0.88;0.88;;;18.20;35.30;;;;;;5302124;26;20635;-79
2024/04/10 13:38:45;;;;;;;9.23;1.17;;;18.90;34.80;;;;;;5330435;26;20032;-79
2024/04/10 13:41:12;;;;;;;1.55;0.70;;;;;;;;;;5337503;26;20005;-77
2024/04/10 13:43:38;;;;;;;0.95;0.75;;;18.40;34.20;;;;;;5333473;26;20037;-78
2024/04/10 13:46:06;;;;;;;3.60;1.20;;;18.10;52.50;;;;;;5336261;26;20016;-79
2024/04/10 13:48:32;;;;;;;2.85;1.15;;;;;;;;;;5330338;26;20071;-78
2024/04/10 13:50:58;;;;;;;1.23;0.82;;;;;;;;;;5336078;26;20000;-78
2024/04/10 13:53:25;;;;;;;2.50;0.77;;;;;;;;;;5339514;26;19997;-79
2024/04/10 13:55:51;;;;;;;3.37;1.67;;;;;;;;;;5340113;26;23001;-80
2024/04/10 13:58:17;;;;;;;4.47;1.17;;;;;;;;;;5333349;26;20305;-80
2024/04/10 14:00:43;;;;;;;1.13;0.85;;;;;;;;;;5333964;26;20337;-80